Hakusei Maru No.25 — JK5629 — position and weather

sailwx.info

Track history (hours):
 
Tides and Currents Weather Stations Pressure Air Temp Water Temp Dewpoint Dewpoint Depression Visibility Wind Speed Wind Dir Waves Ship Positions

Hakusei Maru No.25

Last reported at 2018-Apr-26 03:00 UTC. Time now 2018-Apr-26 03:25 UTC.
Position N 33°24' E 131°57'.

Length 68 m; draft 4.5 m.

Type: Tanker. MMSI: 431401954.

Date/timePositionNaut miles runAvg speedWind from/ knotsBaromVisibWave heightAir tempDewpointWater temp
2018-Apr-26 03:00N 33°24' E 131°57'812.2
2018-Apr-26 02:22N 33°19' E 131°49'3 1.0
2018-Apr-25 23:35N 33°17' E 131°47'1 8.4
2018-Apr-25 23:30N 33°17' E 131°48'7 0.7
2018-Apr-25 13:09N 33°13' E 131°55'  
2018-Apr-21 01:50N 33°17' E 131°50'3 1.4
2018-Apr-20 23:29N 33°15' E 131°47'3 4.0
2018-Apr-20 22:41N 33°17' E 131°43'0 0.1
2018-Apr-20 22:29N 33°17' E 131°43'0 0.0
2018-Apr-20 21:02N 33°17' E 131°43'0 0.4
2018-Apr-20 20:53N 33°17' E 131°43'0 0.1
2018-Apr-20 20:26N 33°17' E 131°43'0 0.0
2018-Apr-20 19:56N 33°17' E 131°43'0 0.0
2018-Apr-20 19:29N 33°17' E 131°43'0 0.0
2018-Apr-20 18:56N 33°17' E 131°43'0 0.0
2018-Apr-20 18:26N 33°17' E 131°43'0 0.0
2018-Apr-20 17:59N 33°17' E 131°43'0 0.0
2018-Apr-20 16:53N 33°17' E 131°43'0 0.0
2018-Apr-20 16:26N 33°17' E 131°43'0 0.0
2018-Apr-20 15:53N 33°17' E 131°43'0 0.0
2018-Apr-20 15:29N 33°17' E 131°43'14 9.6
2018-Apr-20 14:04N 33°30' E 131°47'111.1
2018-Apr-20 14:00N 33°31' E 131°47'611.2
2018-Apr-20 13:30N 33°36' E 131°45'611.9
2018-Apr-20 13:00N 33°41' E 131°41'611.1
2018-Apr-20 12:30N 33°43' E 131°34'611.7
2018-Apr-20 12:00N 33°45' E 131°28'612.1
2018-Apr-20 11:30N 33°48' E 131°22'612.0
2018-Apr-20 11:00N 33°51' E 131°15'611.6
2018-Apr-20 10:30N 33°56' E 131°11'0 0.5
2018-Apr-20 09:50N 33°56' E 131°11'0 0.0
2018-Apr-20 09:26N 33°56' E 131°11'0 0.0
2018-Apr-20 08:50N 33°56' E 131°11'0 0.0
2018-Apr-20 08:23N 33°56' E 131°11'0 0.0
2018-Apr-20 07:53N 33°56' E 131°11'0 0.0
2018-Apr-20 07:17N 33°56' E 131°11'0 0.0
2018-Apr-20 07:00N 33°56' E 131°11'2 3.8
2018-Apr-20 06:30N 33°55' E 131°12'4 8.8
2018-Apr-20 06:00N 33°51' E 131°15'611.5
2018-Apr-20 05:30N 33°49' E 131°21'611.5
2018-Apr-20 05:00N 33°47' E 131°28'611.9
2018-Apr-20 04:30N 33°44' E 131°34'511.2
2018-Apr-20 04:00N 33°41' E 131°40'611.6
2018-Apr-20 03:27N 33°37' E 131°45'611.3
2018-Apr-20 02:53N 33°30' E 131°47'15 4.4
2018-Apr-19 23:22N 33°15' E 131°47'2 5.4
2018-Apr-19 23:00N 33°17' E 131°47'5 9.9
2018-Apr-19 22:30N 33°17' E 131°53'0 0.0
2018-Apr-18 05:06N 33°17' E 131°53'214.0
2018-Apr-18 04:59N 33°17' E 131°51'4 1.5
2018-Apr-18 02:26N 33°15' E 131°47'3 8.3
2018-Apr-18 02:00N 33°17' E 131°50'  
Track history (hours):
 
Tides and Currents Weather Stations Pressure Air Temp Water Temp Dewpoint Dewpoint Depression Visibility Wind Speed Wind Dir Waves Ship Positions

Hakusei Maru No.25

Last reported at 2018-Apr-26 03:00 UTC. Time now 2018-Apr-26 03:25 UTC.
Position N 33°24' E 131°57'.

Length 68 m; draft 4.5 m.

Type: Tanker. MMSI: 431401954.

Date/timePositionNaut miles runAvg speedWind from/ knotsBaromVisibWave heightAir tempDewpointWater temp
2018-Apr-26 03:00N 33°24' E 131°57'812.2
2018-Apr-26 02:22N 33°19' E 131°49'3 1.0
2018-Apr-25 23:35N 33°17' E 131°47'1 8.4
2018-Apr-25 23:30N 33°17' E 131°48'7 0.7
2018-Apr-25 13:09N 33°13' E 131°55'  
2018-Apr-21 01:50N 33°17' E 131°50'3 1.4
2018-Apr-20 23:29N 33°15' E 131°47'3 4.0
2018-Apr-20 22:41N 33°17' E 131°43'0 0.1
2018-Apr-20 22:29N 33°17' E 131°43'0 0.0
2018-Apr-20 21:02N 33°17' E 131°43'0 0.4
2018-Apr-20 20:53N 33°17' E 131°43'0 0.1
2018-Apr-20 20:26N 33°17' E 131°43'0 0.0
2018-Apr-20 19:56N 33°17' E 131°43'0 0.0
2018-Apr-20 19:29N 33°17' E 131°43'0 0.0
2018-Apr-20 18:56N 33°17' E 131°43'0 0.0
2018-Apr-20 18:26N 33°17' E 131°43'0 0.0
2018-Apr-20 17:59N 33°17' E 131°43'0 0.0
2018-Apr-20 16:53N 33°17' E 131°43'0 0.0
2018-Apr-20 16:26N 33°17' E 131°43'0 0.0
2018-Apr-20 15:53N 33°17' E 131°43'0 0.0
2018-Apr-20 15:29N 33°17' E 131°43'14 9.6
2018-Apr-20 14:04N 33°30' E 131°47'111.1
2018-Apr-20 14:00N 33°31' E 131°47'611.2
2018-Apr-20 13:30N 33°36' E 131°45'611.9
2018-Apr-20 13:00N 33°41' E 131°41'611.1
2018-Apr-20 12:30N 33°43' E 131°34'611.7
2018-Apr-20 12:00N 33°45' E 131°28'612.1
2018-Apr-20 11:30N 33°48' E 131°22'612.0
2018-Apr-20 11:00N 33°51' E 131°15'611.6
2018-Apr-20 10:30N 33°56' E 131°11'0 0.5
2018-Apr-20 09:50N 33°56' E 131°11'0 0.0
2018-Apr-20 09:26N 33°56' E 131°11'0 0.0
2018-Apr-20 08:50N 33°56' E 131°11'0 0.0
2018-Apr-20 08:23N 33°56' E 131°11'0 0.0
2018-Apr-20 07:53N 33°56' E 131°11'0 0.0
2018-Apr-20 07:17N 33°56' E 131°11'0 0.0
2018-Apr-20 07:00N 33°56' E 131°11'2 3.8
2018-Apr-20 06:30N 33°55' E 131°12'4 8.8
2018-Apr-20 06:00N 33°51' E 131°15'611.5
2018-Apr-20 05:30N 33°49' E 131°21'611.5
2018-Apr-20 05:00N 33°47' E 131°28'611.9
2018-Apr-20 04:30N 33°44' E 131°34'511.2
2018-Apr-20 04:00N 33°41' E 131°40'611.6
2018-Apr-20 03:27N 33°37' E 131°45'611.3
2018-Apr-20 02:53N 33°30' E 131°47'15 4.4
2018-Apr-19 23:22N 33°15' E 131°47'2 5.4
2018-Apr-19 23:00N 33°17' E 131°47'5 9.9
2018-Apr-19 22:30N 33°17' E 131°53'0 0.0
2018-Apr-18 05:06N 33°17' E 131°53'214.0
2018-Apr-18 04:59N 33°17' E 131°51'4 1.5
2018-Apr-18 02:26N 33°15' E 131°47'3 8.3
2018-Apr-18 02:00N 33°17' E 131°50'  

Dump ship's entire track history